sensor_id;sensor_type;location;lat;lon;timestamp;temperature;humidity
13976;DHT22;7062;49.792;9.946;2022-10-16T00:01:10;16.60;99.90
13976;DHT22;7062;49.792;9.946;2022-10-16T00:03:40;16.60;99.90
13976;DHT22;7062;49.792;9.946;2022-10-16T00:06:07;16.50;99.90
13976;DHT22;7062;49.792;9.946;2022-10-16T00:08:34;16.50;99.90
13976;DHT22;7062;49.792;9.946;2022-10-16T00:11:07;16.60;99.90
13976;DHT22;7062;49.792;9.946;2022-10-16T00:13:34;16.50;99.90
13976;DHT22;7062;49.792;9.946;2022-10-16T00:16:00;16.50;99.90
13976;DHT22;7062;49.792;9.946;2022-10-16T00:18:27;16.50;99.90
13976;DHT22;7062;49.792;9.946;2022-10-16T00:20:53;16.60;99.90
13976;DHT22;7062;49.792;9.946;2022-10-16T00:23:20;16.50;99.90
13976;DHT22;7062;49.792;9.946;2022-10-16T00:25:55;16.50;99.90
13976;DHT22;7062;49.792;9.946;2022-10-16T00:28:21;16.50;99.90
13976;DHT22;7062;49.792;9.946;2022-10-16T00:30:46;16.50;99.90
13976;DHT22;7062;49.792;9.946;2022-10-16T00:33:12;16.50;99.90
13976;DHT22;7062;49.792;9.946;2022-10-16T00:35:38;16.50;99.90
13976;DHT22;7062;49.792;9.946;2022-10-16T00:38:03;16.50;99.90
13976;DHT22;7062;49.792;9.946;2022-10-16T00:40:29;16.60;99.90
13976;DHT22;7062;49.792;9.946;2022-10-16T00:42:54;16.50;99.90
13976;DHT22;7062;49.792;9.946;2022-10-16T00:45:20;16.60;99.90
13976;DHT22;7062;49.792;9.946;2022-10-16T00:47:46;16.50;99.90
13976;DHT22;7062;49.792;9.946;2022-10-16T00:50:28;16.60;99.90
13976;DHT22;7062;49.792;9.946;2022-10-16T00:52:56;16.50;99.90
13976;DHT22;7062;49.792;9.946;2022-10-16T00:55:22;16.60;99.90
13976;DHT22;7062;49.792;9.946;2022-10-16T00:57:50;16.50;99.90
13976;DHT22;7062;49.792;9.946;2022-10-16T01:00:21;16.60;99.90
13976;DHT22;7062;49.792;9.946;2022-10-16T01:02:58;16.50;99.90
13976;DHT22;7062;49.792;9.946;2022-10-16T01:05:33;16.50;99.90
13976;DHT22;7062;49.792;9.946;2022-10-16T01:10:49;16.40;99.90
13976;DHT22;7062;49.792;9.946;2022-10-16T01:13:45;16.40;99.90
13976;DHT22;7062;49.792;9.946;2022-10-16T01:16:18;16.40;99.90
13976;DHT22;7062;49.792;9.946;2022-10-16T01:18:54;16.40;99.90
13976;DHT22;7062;49.792;9.946;2022-10-16T01:21:35;16.50;99.90
13976;DHT22;7062;49.792;9.946;2022-10-16T01:24:39;16.50;99.90
13976;DHT22;7062;49.792;9.946;2022-10-16T01:27:20;16.50;99.90
13976;DHT22;7062;49.792;9.946;2022-10-16T01:30:02;16.60;99.90
13976;DHT22;7062;49.792;9.946;2022-10-16T01:35:11;16.60;99.90
13976;DHT22;7062;49.792;9.946;2022-10-16T01:38:10;16.60;99.90
13976;DHT22;7062;49.792;9.946;2022-10-16T01:40:36;16.60;99.90
13976;DHT22;7062;49.792;9.946;2022-10-16T01:43:10;16.60;99.90
13976;DHT22;7062;49.792;9.946;2022-10-16T01:45:38;16.60;99.90
13976;DHT22;7062;49.792;9.946;2022-10-16T01:48:05;16.60;99.90
13976;DHT22;7062;49.792;9.946;2022-10-16T01:50:37;16.60;99.90
13976;DHT22;7062;49.792;9.946;2022-10-16T01:53:05;16.60;99.90
13976;DHT22;7062;49.792;9.946;2022-10-16T01:55:37;16.60;99.90
13976;DHT22;7062;49.792;9.946;2022-10-16T01:58:06;16.60;99.90
13976;DHT22;7062;49.792;9.946;2022-10-16T02:00:32;16.60;99.90
13976;DHT22;7062;49.792;9.946;2022-10-16T02:03:01;16.60;99.90
13976;DHT22;7062;49.792;9.946;2022-10-16T02:05:52;16.60;99.90
13976;DHT22;7062;49.792;9.946;2022-10-16T02:08:16;16.60;99.90
13976;DHT22;7062;49.792;9.946;2022-10-16T02:10:42;16.60;99.90
13976;DHT22;7062;49.792;9.946;2022-10-16T02:13:21;16.60;99.90
13976;DHT22;7062;49.792;9.946;2022-10-16T02:15:49;16.50;99.90
13976;DHT22;7062;49.792;9.946;2022-10-16T02:18:15;16.50;99.90
13976;DHT22;7062;49.792;9.946;2022-10-16T02:20:51;16.60;99.90
13976;DHT22;7062;49.792;9.946;2022-10-16T02:23:26;16.60;99.90
13976;DHT22;7062;49.792;9.946;2022-10-16T02:25:55;16.60;99.90
13976;DHT22;7062;49.792;9.946;2022-10-16T02:28:28;16.60;99.90
13976;DHT22;7062;49.792;9.946;2022-10-16T02:30:59;16.50;99.90
13976;DHT22;7062;49.792;9.946;2022-10-16T02:33:28;16.50;99.90
13976;DHT22;7062;49.792;9.946;2022-10-16T02:35:57;16.60;99.90
13976;DHT22;7062;49.792;9.946;2022-10-16T02:38:24;16.60;99.90
13976;DHT22;7062;49.792;9.946;2022-10-16T02:40:51;16.90;99.90
13976;DHT22;7062;49.792;9.946;2022-10-16T02:43:17;16.70;99.90
13976;DHT22;7062;49.792;9.946;2022-10-16T02:45:42;16.70;99.90
13976;DHT22;7062;49.792;9.946;2022-10-16T02:48:08;16.70;99.90
13976;DHT22;7062;49.792;9.946;2022-10-16T02:50:34;16.70;99.90
13976;DHT22;7062;49.792;9.946;2022-10-16T02:53:00;16.70;99.90
13976;DHT22;7062;49.792;9.946;2022-10-16T02:55:26;16.70;99.90
13976;DHT22;7062;49.792;9.946;2022-10-16T02:57:53;16.60;99.90
13976;DHT22;7062;49.792;9.946;2022-10-16T03:00:19;16.60;99.90
13976;DHT22;7062;49.792;9.946;2022-10-16T03:02:45;16.50;99.90
13976;DHT22;7062;49.792;9.946;2022-10-16T03:05:12;16.50;99.90
13976;DHT22;7062;49.792;9.946;2022-10-16T03:07:38;16.40;99.90
13976;DHT22;7062;49.792;9.946;2022-10-16T03:10:04;16.40;99.90
13976;DHT22;7062;49.792;9.946;2022-10-16T03:12:30;16.30;99.90
13976;DHT22;7062;49.792;9.946;2022-10-16T03:14:57;16.30;99.90
13976;DHT22;7062;49.792;9.946;2022-10-16T03:17:23;16.30;99.90
13976;DHT22;7062;49.792;9.946;2022-10-16T03:19:49;16.30;99.90
13976;DHT22;7062;49.792;9.946;2022-10-16T03:22:15;16.30;99.90
13976;DHT22;7062;49.792;9.946;2022-10-16T03:24:40;16.20;99.90
13976;DHT22;7062;49.792;9.946;2022-10-16T03:27:06;16.20;99.90
13976;DHT22;7062;49.792;9.946;2022-10-16T03:29:32;16.20;99.90
13976;DHT22;7062;49.792;9.946;2022-10-16T03:31:58;16.10;99.90
13976;DHT22;7062;49.792;9.946;2022-10-16T03:34:24;16.20;99.90
13976;DHT22;7062;49.792;9.946;2022-10-16T03:36:51;16.10;99.90
13976;DHT22;7062;49.792;9.946;2022-10-16T03:39:16;16.20;99.90
13976;DHT22;7062;49.792;9.946;2022-10-16T03:41:42;16.20;99.90
13976;DHT22;7062;49.792;9.946;2022-10-16T03:44:08;16.20;99.90
13976;DHT22;7062;49.792;9.946;2022-10-16T03:46:33;16.30;99.90
13976;DHT22;7062;49.792;9.946;2022-10-16T03:48:59;16.30;99.90
13976;DHT22;7062;49.792;9.946;2022-10-16T03:51:24;16.20;99.90
13976;DHT22;7062;49.792;9.946;2022-10-16T03:53:50;16.30;99.90
13976;DHT22;7062;49.792;9.946;2022-10-16T03:56:16;16.30;99.90
13976;DHT22;7062;49.792;9.946;2022-10-16T03:58:41;16.30;99.90
13976;DHT22;7062;49.792;9.946;2022-10-16T04:01:07;16.30;99.90
13976;DHT22;7062;49.792;9.946;2022-10-16T04:03:33;16.30;99.90
13976;DHT22;7062;49.792;9.946;2022-10-16T04:05:58;16.30;99.90
13976;DHT22;7062;49.792;9.946;2022-10-16T04:08:24;16.30;99.90
13976;DHT22;7062;49.792;9.946;2022-10-16T04:10:50;16.30;99.90
13976;DHT22;7062;49.792;9.946;2022-10-16T04:13:15;16.30;99.90
13976;DHT22;7062;49.792;9.946;2022-10-16T04:15:41;16.30;99.90
13976;DHT22;7062;49.792;9.946;2022-10-16T04:18:07;16.30;99.90
13976;DHT22;7062;49.792;9.946;2022-10-16T04:20:33;16.30;99.90
13976;DHT22;7062;49.792;9.946;2022-10-16T04:22:59;16.20;99.90
13976;DHT22;7062;49.792;9.946;2022-10-16T04:25:25;16.20;99.90
13976;DHT22;7062;49.792;9.946;2022-10-16T04:27:53;16.20;99.90
13976;DHT22;7062;49.792;9.946;2022-10-16T04:30:19;16.20;99.90
13976;DHT22;7062;49.792;9.946;2022-10-16T04:32:51;16.20;99.90
13976;DHT22;7062;49.792;9.946;2022-10-16T04:35:18;16.10;99.90
13976;DHT22;7062;49.792;9.946;2022-10-16T04:37:44;16.20;99.90
13976;DHT22;7062;49.792;9.946;2022-10-16T04:40:09;16.10;99.90
13976;DHT22;7062;49.792;9.946;2022-10-16T04:42:35;16.20;99.90
13976;DHT22;7062;49.792;9.946;2022-10-16T04:45:01;16.20;99.90
13976;DHT22;7062;49.792;9.946;2022-10-16T04:47:26;16.10;99.90
13976;DHT22;7062;49.792;9.946;2022-10-16T04:49:52;16.20;99.90
13976;DHT22;7062;49.792;9.946;2022-10-16T04:52:17;16.20;99.90
13976;DHT22;7062;49.792;9.946;2022-10-16T04:54:44;16.20;99.90
13976;DHT22;7062;49.792;9.946;2022-10-16T04:57:10;16.20;99.90
13976;DHT22;7062;49.792;9.946;2022-10-16T04:59:36;16.20;99.90
13976;DHT22;7062;49.792;9.946;2022-10-16T05:02:02;16.20;99.90
13976;DHT22;7062;49.792;9.946;2022-10-16T05:04:28;16.20;99.90
13976;DHT22;7062;49.792;9.946;2022-10-16T05:06:53;16.30;99.90
13976;DHT22;7062;49.792;9.946;2022-10-16T05:09:19;16.30;99.90
13976;DHT22;7062;49.792;9.946;2022-10-16T05:11:45;16.30;99.90
13976;DHT22;7062;49.792;9.946;2022-10-16T05:14:11;16.20;99.90
13976;DHT22;7062;49.792;9.946;2022-10-16T05:16:36;16.20;99.90
13976;DHT22;7062;49.792;9.946;2022-10-16T05:19:02;16.20;99.90
13976;DHT22;7062;49.792;9.946;2022-10-16T05:21:28;16.20;99.90
13976;DHT22;7062;49.792;9.946;2022-10-16T05:23:54;16.10;99.90
13976;DHT22;7062;49.792;9.946;2022-10-16T05:26:20;16.20;99.90
13976;DHT22;7062;49.792;9.946;2022-10-16T05:28:46;16.20;99.90
13976;DHT22;7062;49.792;9.946;2022-10-16T05:31:12;16.20;99.90
13976;DHT22;7062;49.792;9.946;2022-10-16T05:33:37;16.30;99.90
13976;DHT22;7062;49.792;9.946;2022-10-16T05:36:05;16.30;99.90
13976;DHT22;7062;49.792;9.946;2022-10-16T05:38:32;16.30;99.90
13976;DHT22;7062;49.792;9.946;2022-10-16T05:40:58;16.30;99.90
13976;DHT22;7062;49.792;9.946;2022-10-16T05:43:24;16.30;99.90
13976;DHT22;7062;49.792;9.946;2022-10-16T05:48:21;16.30;99.90
13976;DHT22;7062;49.792;9.946;2022-10-16T05:50:47;16.20;99.90
13976;DHT22;7062;49.792;9.946;2022-10-16T05:53:13;16.20;99.90
13976;DHT22;7062;49.792;9.946;2022-10-16T05:55:38;16.20;99.90
13976;DHT22;7062;49.792;9.946;2022-10-16T05:58:04;16.20;99.90
13976;DHT22;7062;49.792;9.946;2022-10-16T06:00:30;16.20;99.90
13976;DHT22;7062;49.792;9.946;2022-10-16T06:02:55;16.30;99.90
13976;DHT22;7062;49.792;9.946;2022-10-16T06:05:21;16.20;99.90
13976;DHT22;7062;49.792;9.946;2022-10-16T06:07:46;16.20;99.90
13976;DHT22;7062;49.792;9.946;2022-10-16T06:10:12;16.20;99.90
13976;DHT22;7062;49.792;9.946;2022-10-16T06:12:38;16.20;99.90
13976;DHT22;7062;49.792;9.946;2022-10-16T06:15:04;16.20;99.90
13976;DHT22;7062;49.792;9.946;2022-10-16T06:17:29;16.20;99.90
13976;DHT22;7062;49.792;9.946;2022-10-16T06:19:55;16.20;99.90
13976;DHT22;7062;49.792;9.946;2022-10-16T06:22:21;16.30;99.90
13976;DHT22;7062;49.792;9.946;2022-10-16T06:24:46;16.30;99.90
13976;DHT22;7062;49.792;9.946;2022-10-16T06:27:13;16.30;99.90
13976;DHT22;7062;49.792;9.946;2022-10-16T06:29:38;16.30;99.90
13976;DHT22;7062;49.792;9.946;2022-10-16T06:32:04;16.30;99.90
13976;DHT22;7062;49.792;9.946;2022-10-16T06:34:29;16.30;99.90
13976;DHT22;7062;49.792;9.946;2022-10-16T06:36:55;16.30;99.90
13976;DHT22;7062;49.792;9.946;2022-10-16T06:39:21;16.30;99.90
13976;DHT22;7062;49.792;9.946;2022-10-16T06:41:46;16.30;99.90
13976;DHT22;7062;49.792;9.946;2022-10-16T06:44:12;16.30;99.90
13976;DHT22;7062;49.792;9.946;2022-10-16T06:46:38;16.30;99.90
13976;DHT22;7062;49.792;9.946;2022-10-16T06:49:03;16.30;99.90
13976;DHT22;7062;49.792;9.946;2022-10-16T06:51:29;16.40;99.90
13976;DHT22;7062;49.792;9.946;2022-10-16T06:53:57;16.40;99.90
13976;DHT22;7062;49.792;9.946;2022-10-16T06:56:25;16.50;99.90
13976;DHT22;7062;49.792;9.946;2022-10-16T06:58:52;16.50;99.90
13976;DHT22;7062;49.792;9.946;2022-10-16T07:01:22;16.60;99.90
13976;DHT22;7062;49.792;9.946;2022-10-16T07:03:48;16.70;99.90
13976;DHT22;7062;49.792;9.946;2022-10-16T07:06:16;16.70;99.90
13976;DHT22;7062;49.792;9.946;2022-10-16T07:08:44;16.70;99.90
13976;DHT22;7062;49.792;9.946;2022-10-16T07:11:13;16.80;99.90
13976;DHT22;7062;49.792;9.946;2022-10-16T07:13:40;16.80;99.90
13976;DHT22;7062;49.792;9.946;2022-10-16T07:16:09;16.80;99.90
13976;DHT22;7062;49.792;9.946;2022-10-16T07:18:35;16.90;99.90
13976;DHT22;7062;49.792;9.946;2022-10-16T07:21:08;16.80;99.90
13976;DHT22;7062;49.792;9.946;2022-10-16T07:23:35;16.70;99.90
13976;DHT22;7062;49.792;9.946;2022-10-16T07:26:00;16.70;99.90
13976;DHT22;7062;49.792;9.946;2022-10-16T07:28:27;16.70;99.90
13976;DHT22;7062;49.792;9.946;2022-10-16T07:30:53;16.70;99.90
13976;DHT22;7062;49.792;9.946;2022-10-16T07:33:18;16.70;99.90
13976;DHT22;7062;49.792;9.946;2022-10-16T07:35:51;16.60;99.90
13976;DHT22;7062;49.792;9.946;2022-10-16T07:38:18;16.60;99.90
13976;DHT22;7062;49.792;9.946;2022-10-16T07:40:44;16.70;99.90
13976;DHT22;7062;49.792;9.946;2022-10-16T07:43:10;16.70;99.90
13976;DHT22;7062;49.792;9.946;2022-10-16T07:45:35;16.80;99.90
13976;DHT22;7062;49.792;9.946;2022-10-16T07:48:01;16.90;99.90
13976;DHT22;7062;49.792;9.946;2022-10-16T07:50:27;16.90;99.90
13976;DHT22;7062;49.792;9.946;2022-10-16T07:52:52;17.00;99.90
13976;DHT22;7062;49.792;9.946;2022-10-16T07:55:18;17.10;99.90
13976;DHT22;7062;49.792;9.946;2022-10-16T07:57:44;17.20;99.90
13976;DHT22;7062;49.792;9.946;2022-10-16T08:00:09;17.30;99.90
13976;DHT22;7062;49.792;9.946;2022-10-16T08:02:42;17.30;99.90
13976;DHT22;7062;49.792;9.946;2022-10-16T08:05:08;17.30;99.90
13976;DHT22;7062;49.792;9.946;2022-10-16T08:07:33;17.30;99.90
13976;DHT22;7062;49.792;9.946;2022-10-16T08:09:59;17.20;99.90
13976;DHT22;7062;49.792;9.946;2022-10-16T08:12:25;17.10;99.90
13976;DHT22;7062;49.792;9.946;2022-10-16T08:14:51;17.10;99.90
13976;DHT22;7062;49.792;9.946;2022-10-16T08:17:17;17.30;99.90
13976;DHT22;7062;49.792;9.946;2022-10-16T08:19:46;17.30;99.90
13976;DHT22;7062;49.792;9.946;2022-10-16T08:22:13;17.40;99.90
13976;DHT22;7062;49.792;9.946;2022-10-16T08:24:38;17.40;99.90
13976;DHT22;7062;49.792;9.946;2022-10-16T08:27:05;17.50;99.90
13976;DHT22;7062;49.792;9.946;2022-10-16T08:29:32;17.50;99.90
13976;DHT22;7062;49.792;9.946;2022-10-16T08:31:58;17.60;99.90
13976;DHT22;7062;49.792;9.946;2022-10-16T08:34:26;17.60;99.90
13976;DHT22;7062;49.792;9.946;2022-10-16T08:36:55;17.70;99.90
13976;DHT22;7062;49.792;9.946;2022-10-16T08:39:21;17.80;99.90
13976;DHT22;7062;49.792;9.946;2022-10-16T08:47:38;17.70;99.90
13976;DHT22;7062;49.792;9.946;2022-10-16T08:50:11;17.80;99.90
13976;DHT22;7062;49.792;9.946;2022-10-16T08:52:40;17.90;99.90
13976;DHT22;7062;49.792;9.946;2022-10-16T08:55:06;18.10;99.90
13976;DHT22;7062;49.792;9.946;2022-10-16T08:57:35;18.20;99.90
13976;DHT22;7062;49.792;9.946;2022-10-16T09:00:08;18.30;99.90
13976;DHT22;7062;49.792;9.946;2022-10-16T09:02:40;18.40;99.90
13976;DHT22;7062;49.792;9.946;2022-10-16T09:14:07;18.90;99.90
13976;DHT22;7062;49.792;9.946;2022-10-16T09:16:44;18.60;99.90
13976;DHT22;7062;49.792;9.946;2022-10-16T09:19:27;18.60;99.90
13976;DHT22;7062;49.792;9.946;2022-10-16T09:21:56;18.40;99.90
13976;DHT22;7062;49.792;9.946;2022-10-16T09:24:24;18.40;99.90
13976;DHT22;7062;49.792;9.946;2022-10-16T09:26:50;18.50;99.90
13976;DHT22;7062;49.792;9.946;2022-10-16T09:29:18;18.60;99.90
13976;DHT22;7062;49.792;9.946;2022-10-16T09:31:47;18.60;99.90
13976;DHT22;7062;49.792;9.946;2022-10-16T09:34:33;18.50;99.90
13976;DHT22;7062;49.792;9.946;2022-10-16T09:37:04;18.50;99.90
13976;DHT22;7062;49.792;9.946;2022-10-16T09:39:31;18.40;99.90
13976;DHT22;7062;49.792;9.946;2022-10-16T09:42:15;18.40;99.90
13976;DHT22;7062;49.792;9.946;2022-10-16T09:44:41;18.30;99.90
13976;DHT22;7062;49.792;9.946;2022-10-16T09:47:19;18.30;99.90
13976;DHT22;7062;49.792;9.946;2022-10-16T09:50:04;18.30;99.90
13976;DHT22;7062;49.792;9.946;2022-10-16T09:52:32;18.40;99.90
13976;DHT22;7062;49.792;9.946;2022-10-16T09:55:00;18.50;99.90
13976;DHT22;7062;49.792;9.946;2022-10-16T09:57:27;18.50;99.90
13976;DHT22;7062;49.792;9.946;2022-10-16T09:59:54;18.60;99.90
13976;DHT22;7062;49.792;9.946;2022-10-16T10:02:30;18.70;99.90
13976;DHT22;7062;49.792;9.946;2022-10-16T10:04:57;18.80;99.90
13976;DHT22;7062;49.792;9.946;2022-10-16T10:07:28;18.80;99.90
13976;DHT22;7062;49.792;9.946;2022-10-16T10:09:58;18.90;99.90
13976;DHT22;7062;49.792;9.946;2022-10-16T10:12:25;18.90;99.90
13976;DHT22;7062;49.792;9.946;2022-10-16T10:14:56;18.90;99.90
13976;DHT22;7062;49.792;9.946;2022-10-16T10:17:24;18.90;99.90
13976;DHT22;7062;49.792;9.946;2022-10-16T10:20:00;19.00;99.90
13976;DHT22;7062;49.792;9.946;2022-10-16T10:36:38;18.50;99.90
13976;DHT22;7062;49.792;9.946;2022-10-16T10:39:20;18.40;99.90
13976;DHT22;7062;49.792;9.946;2022-10-16T10:42:09;18.30;99.90
13976;DHT22;7062;49.792;9.946;2022-10-16T10:48:13;18.20;99.90
13976;DHT22;7062;49.792;9.946;2022-10-16T10:56:13;18.90;99.90
13976;DHT22;7062;49.792;9.946;2022-10-16T11:01:13;20.10;99.90
13976;DHT22;7062;49.792;9.946;2022-10-16T11:09:24;25.60;99.90
13976;DHT22;7062;49.792;9.946;2022-10-16T11:12:11;29.00;99.90
13976;DHT22;7062;49.792;9.946;2022-10-16T11:21:04;35.10;99.90
13976;DHT22;7062;49.792;9.946;2022-10-16T11:23:54;35.20;99.90
13976;DHT22;7062;49.792;9.946;2022-10-16T11:26:27;35.70;99.90
13976;DHT22;7062;49.792;9.946;2022-10-16T11:28:55;35.60;99.80
13976;DHT22;7062;49.792;9.946;2022-10-16T11:31:40;36.60;99.10
13976;DHT22;7062;49.792;9.946;2022-10-16T11:37:11;38.10;95.60
13976;DHT22;7062;49.792;9.946;2022-10-16T11:39:38;38.90;93.80
13976;DHT22;7062;49.792;9.946;2022-10-16T11:42:18;38.70;93.10
13976;DHT22;7062;49.792;9.946;2022-10-16T11:47:44;38.10;93.30
13976;DHT22;7062;49.792;9.946;2022-10-16T11:50:14;38.10;92.50
13976;DHT22;7062;49.792;9.946;2022-10-16T11:53:01;35.70;93.70
13976;DHT22;7062;49.792;9.946;2022-10-16T11:55:42;35.60;94.40
13976;DHT22;7062;49.792;9.946;2022-10-16T11:58:25;36.10;93.60
13976;DHT22;7062;49.792;9.946;2022-10-16T12:06:34;37.60;91.40
13976;DHT22;7062;49.792;9.946;2022-10-16T12:09:01;38.10;91.20
13976;DHT22;7062;49.792;9.946;2022-10-16T12:11:37;39.10;90.00
13976;DHT22;7062;49.792;9.946;2022-10-16T12:16:58;39.20;87.90
13976;DHT22;7062;49.792;9.946;2022-10-16T12:19:31;38.70;86.40
13976;DHT22;7062;49.792;9.946;2022-10-16T12:21:59;38.20;87.90
13976;DHT22;7062;49.792;9.946;2022-10-16T12:24:38;38.30;87.70
13976;DHT22;7062;49.792;9.946;2022-10-16T12:30:04;37.70;87.10
13976;DHT22;7062;49.792;9.946;2022-10-16T12:32:37;36.10;90.00
13976;DHT22;7062;49.792;9.946;2022-10-16T12:35:06;35.60;90.20
13976;DHT22;7062;49.792;9.946;2022-10-16T12:37:41;35.50;90.70
13976;DHT22;7062;49.792;9.946;2022-10-16T12:40:30;37.00;89.40
13976;DHT22;7062;49.792;9.946;2022-10-16T12:42:57;37.20;88.30
13976;DHT22;7062;49.792;9.946;2022-10-16T12:45:30;36.60;88.90
13976;DHT22;7062;49.792;9.946;2022-10-16T12:47:57;36.10;90.50
13976;DHT22;7062;49.792;9.946;2022-10-16T12:50:36;37.30;89.50
13976;DHT22;7062;49.792;9.946;2022-10-16T12:53:15;36.90;88.90
13976;DHT22;7062;49.792;9.946;2022-10-16T12:56:18;37.70;88.60
13976;DHT22;7062;49.792;9.946;2022-10-16T13:01:21;36.50;90.20
13976;DHT22;7062;49.792;9.946;2022-10-16T13:09:32;33.40;92.30
13976;DHT22;7062;49.792;9.946;2022-10-16T13:22:45;33.20;94.10
13976;DHT22;7062;49.792;9.946;2022-10-16T13:30:19;34.10;92.40
13976;DHT22;7062;49.792;9.946;2022-10-16T13:35:56;33.40;92.10
13976;DHT22;7062;49.792;9.946;2022-10-16T13:38:33;30.70;95.10
13976;DHT22;7062;49.792;9.946;2022-10-16T13:41:01;29.30;96.50
13976;DHT22;7062;49.792;9.946;2022-10-16T13:43:35;28.50;97.80
13976;DHT22;7062;49.792;9.946;2022-10-16T13:46:03;27.20;99.20
13976;DHT22;7062;49.792;9.946;2022-10-16T13:48:30;26.40;99.90
13976;DHT22;7062;49.792;9.946;2022-10-16T13:51:04;26.00;99.90
13976;DHT22;7062;49.792;9.946;2022-10-16T13:53:32;25.50;99.90
13976;DHT22;7062;49.792;9.946;2022-10-16T13:55:59;25.00;99.90
13976;DHT22;7062;49.792;9.946;2022-10-16T13:58:26;24.50;99.90
13976;DHT22;7062;49.792;9.946;2022-10-16T14:01:13;24.50;99.90
13976;DHT22;7062;49.792;9.946;2022-10-16T14:03:40;24.40;99.90
13976;DHT22;7062;49.792;9.946;2022-10-16T14:06:15;24.30;99.90
13976;DHT22;7062;49.792;9.946;2022-10-16T14:08:59;24.00;99.90
13976;DHT22;7062;49.792;9.946;2022-10-16T14:11:25;23.80;99.90
13976;DHT22;7062;49.792;9.946;2022-10-16T14:13:52;23.90;99.90
13976;DHT22;7062;49.792;9.946;2022-10-16T14:16:30;24.00;99.90
13976;DHT22;7062;49.792;9.946;2022-10-16T14:18:56;24.20;99.90
13976;DHT22;7062;49.792;9.946;2022-10-16T14:21:23;24.30;99.90
13976;DHT22;7062;49.792;9.946;2022-10-16T14:23:49;24.50;99.90
13976;DHT22;7062;49.792;9.946;2022-10-16T14:26:18;24.50;99.90
13976;DHT22;7062;49.792;9.946;2022-10-16T14:28:45;24.40;99.90
13976;DHT22;7062;49.792;9.946;2022-10-16T14:33:49;24.10;99.90
13976;DHT22;7062;49.792;9.946;2022-10-16T14:36:15;24.00;99.90
13976;DHT22;7062;49.792;9.946;2022-10-16T14:39:06;23.80;99.90
13976;DHT22;7062;49.792;9.946;2022-10-16T14:41:48;23.50;99.90
13976;DHT22;7062;49.792;9.946;2022-10-16T14:44:14;23.50;99.90
13976;DHT22;7062;49.792;9.946;2022-10-16T14:46:41;23.30;99.90
13976;DHT22;7062;49.792;9.946;2022-10-16T14:51:37;23.10;99.90
13976;DHT22;7062;49.792;9.946;2022-10-16T14:54:04;23.00;99.90
13976;DHT22;7062;49.792;9.946;2022-10-16T14:56:51;23.10;99.90
13976;DHT22;7062;49.792;9.946;2022-10-16T14:59:38;23.00;99.90
13976;DHT22;7062;49.792;9.946;2022-10-16T15:02:31;23.00;99.90
13976;DHT22;7062;49.792;9.946;2022-10-16T15:04:59;22.90;99.90
13976;DHT22;7062;49.792;9.946;2022-10-16T15:07:27;22.80;99.90
13976;DHT22;7062;49.792;9.946;2022-10-16T15:09:53;22.60;99.90
13976;DHT22;7062;49.792;9.946;2022-10-16T15:12:19;22.60;99.90
13976;DHT22;7062;49.792;9.946;2022-10-16T15:14:44;22.60;99.90
13976;DHT22;7062;49.792;9.946;2022-10-16T15:17:10;22.50;99.90
13976;DHT22;7062;49.792;9.946;2022-10-16T15:19:36;22.50;99.90
13976;DHT22;7062;49.792;9.946;2022-10-16T15:22:02;22.50;99.90
13976;DHT22;7062;49.792;9.946;2022-10-16T15:24:27;22.40;99.90
13976;DHT22;7062;49.792;9.946;2022-10-16T15:26:53;22.40;99.90
13976;DHT22;7062;49.792;9.946;2022-10-16T15:29:19;22.30;99.90
13976;DHT22;7062;49.792;9.946;2022-10-16T15:31:44;22.30;99.90
13976;DHT22;7062;49.792;9.946;2022-10-16T15:34:13;22.30;99.90
13976;DHT22;7062;49.792;9.946;2022-10-16T15:36:39;22.20;99.90
13976;DHT22;7062;49.792;9.946;2022-10-16T15:39:12;22.20;99.90
13976;DHT22;7062;49.792;9.946;2022-10-16T15:41:38;22.10;99.90
13976;DHT22;7062;49.792;9.946;2022-10-16T15:44:04;22.10;99.90
13976;DHT22;7062;49.792;9.946;2022-10-16T15:46:29;22.00;99.90
13976;DHT22;7062;49.792;9.946;2022-10-16T15:48:58;22.00;99.90
13976;DHT22;7062;49.792;9.946;2022-10-16T15:51:24;22.00;99.90
13976;DHT22;7062;49.792;9.946;2022-10-16T15:53:50;22.00;99.90
13976;DHT22;7062;49.792;9.946;2022-10-16T15:56:17;22.00;99.90
13976;DHT22;7062;49.792;9.946;2022-10-16T15:58:43;22.00;99.90
13976;DHT22;7062;49.792;9.946;2022-10-16T16:01:09;22.00;99.90
13976;DHT22;7062;49.792;9.946;2022-10-16T16:03:35;22.00;99.90
13976;DHT22;7062;49.792;9.946;2022-10-16T16:06:07;21.90;99.90
13976;DHT22;7062;49.792;9.946;2022-10-16T16:08:33;21.90;99.90
13976;DHT22;7062;49.792;9.946;2022-10-16T16:11:01;21.80;99.90
13976;DHT22;7062;49.792;9.946;2022-10-16T16:13:27;21.80;99.90
13976;DHT22;7062;49.792;9.946;2022-10-16T16:15:53;21.70;99.90
13976;DHT22;7062;49.792;9.946;2022-10-16T16:18:19;21.60;99.90
13976;DHT22;7062;49.792;9.946;2022-10-16T16:20:44;21.60;99.90
13976;DHT22;7062;49.792;9.946;2022-10-16T16:23:10;21.50;99.90
13976;DHT22;7062;49.792;9.946;2022-10-16T16:25:37;21.50;99.90
13976;DHT22;7062;49.792;9.946;2022-10-16T16:28:03;21.40;99.90
13976;DHT22;7062;49.792;9.946;2022-10-16T16:30:28;21.30;99.90
13976;DHT22;7062;49.792;9.946;2022-10-16T16:32:54;21.30;99.90
13976;DHT22;7062;49.792;9.946;2022-10-16T16:35:19;21.20;99.90
13976;DHT22;7062;49.792;9.946;2022-10-16T16:37:46;21.20;99.90
13976;DHT22;7062;49.792;9.946;2022-10-16T16:40:12;21.20;99.90
13976;DHT22;7062;49.792;9.946;2022-10-16T16:42:38;21.10;99.90
13976;DHT22;7062;49.792;9.946;2022-10-16T16:45:04;21.00;99.90
13976;DHT22;7062;49.792;9.946;2022-10-16T16:47:30;21.00;99.90
13976;DHT22;7062;49.792;9.946;2022-10-16T16:49:55;20.80;99.90
13976;DHT22;7062;49.792;9.946;2022-10-16T16:52:21;20.70;99.90
13976;DHT22;7062;49.792;9.946;2022-10-16T16:54:48;20.60;99.90
13976;DHT22;7062;49.792;9.946;2022-10-16T16:57:18;20.60;99.90
13976;DHT22;7062;49.792;9.946;2022-10-16T16:59:44;20.40;99.90
13976;DHT22;7062;49.792;9.946;2022-10-16T17:02:09;20.40;99.90
13976;DHT22;7062;49.792;9.946;2022-10-16T17:04:35;20.20;99.90
13976;DHT22;7062;49.792;9.946;2022-10-16T17:07:01;20.30;99.90
13976;DHT22;7062;49.792;9.946;2022-10-16T17:09:26;20.20;99.90
13976;DHT22;7062;49.792;9.946;2022-10-16T17:11:52;20.20;99.90
13976;DHT22;7062;49.792;9.946;2022-10-16T17:14:19;20.10;99.90
13976;DHT22;7062;49.792;9.946;2022-10-16T17:16:45;20.10;99.90
13976;DHT22;7062;49.792;9.946;2022-10-16T17:19:15;20.00;99.90
13976;DHT22;7062;49.792;9.946;2022-10-16T17:21:41;20.00;99.90
13976;DHT22;7062;49.792;9.946;2022-10-16T17:24:08;20.00;99.90
13976;DHT22;7062;49.792;9.946;2022-10-16T17:26:34;20.00;99.90
13976;DHT22;7062;49.792;9.946;2022-10-16T17:29:03;19.90;99.90
13976;DHT22;7062;49.792;9.946;2022-10-16T17:31:35;19.80;99.90
13976;DHT22;7062;49.792;9.946;2022-10-16T17:34:03;19.80;99.90
13976;DHT22;7062;49.792;9.946;2022-10-16T17:36:31;19.60;99.90
13976;DHT22;7062;49.792;9.946;2022-10-16T17:39:03;19.50;99.90
13976;DHT22;7062;49.792;9.946;2022-10-16T17:41:30;19.40;99.90
13976;DHT22;7062;49.792;9.946;2022-10-16T17:43:55;19.40;99.90
13976;DHT22;7062;49.792;9.946;2022-10-16T17:46:22;19.30;99.90